Time;durP1;ratioP1;P1;durP2;ratioP2;P2;SDS_P1;SDS_P2;PMS_P1;PMS_P2;Temp;Humidity;BMP_temperature;BMP_pressure;BME280_temperature;BME280_humidity;BME280_pressure;Samples;Min_cycle;Max_cycle;Signal;HPM_P1;HPM_P2
2021/12/25 00:01:02;;;;;;;25.52;10.60;;;;;;;0.23;100.00;94724.16;5096307;27;20101;-75
2021/12/25 00:03:29;;;;;;;31.25;11.13;;;;;;;0.22;100.00;94742.25;5115861;27;20062;-74
2021/12/25 00:05:56;;;;;;;32.72;13.95;;;;;;;0.20;100.00;94729.63;5092179;28;20428;-74
2021/12/25 00:08:27;;;;;;;32.88;14.77;;;;;;;0.32;100.00;94738.50;5110045;27;20044;-75
2021/12/25 00:10:56;;;;;;;29.05;13.55;;;;;;;0.26;100.00;94748.66;5104935;27;20036;-74
2021/12/25 00:13:23;;;;;;;37.35;16.63;;;;;;;0.17;100.00;94735.88;5102452;27;20050;-75
2021/12/25 00:15:51;;;;;;;39.50;15.18;;;;;;;0.21;100.00;94753.47;5112642;27;20124;-75
2021/12/25 00:18:19;;;;;;;30.38;14.43;;;;;;;0.16;100.00;94754.78;5111379;27;20095;-74
2021/12/25 00:20:46;;;;;;;30.30;11.73;;;;;;;0.17;100.00;94746.13;5103354;27;20440;-75
2021/12/25 00:23:14;;;;;;;31.08;10.35;;;;;;;0.31;100.00;94751.50;5108591;27;20036;-74
2021/12/25 00:25:46;;;;;;;23.13;11.95;;;;;;;0.26;100.00;94759.69;5114391;27;20050;-74
2021/12/25 00:28:48;;;;;;;20.13;11.25;;;;;;;0.24;100.00;94746.25;5106206;27;20507;-74
2021/12/25 00:36:11;;;;;;;21.27;9.88;;;;;;;0.27;98.47;94738.22;5106168;27;20063;-75
2021/12/25 00:38:40;;;;;;;19.90;9.50;;;;;;;0.31;97.95;94746.38;5110121;27;20039;-75
2021/12/25 00:41:10;;;;;;;18.27;8.68;;;;;;;0.35;97.75;94747.63;5093391;28;20054;-75
2021/12/25 00:43:37;;;;;;;15.35;8.02;;;;;;;0.35;97.27;94748.41;5107584;28;20090;-74
2021/12/25 00:46:04;;;;;;;17.55;7.35;;;;;;;0.37;96.73;94748.25;5109885;28;20050;-75
2021/12/25 00:48:31;;;;;;;13.02;7.32;;;;;;;0.36;96.22;94739.78;5110478;28;20137;-74
2021/12/25 00:50:59;;;;;;;15.48;7.28;;;;;;;0.25;95.95;94727.34;5090269;28;20060;-75
2021/12/25 00:53:27;;;;;;;20.65;8.75;;;;;;;0.23;96.13;94728.47;5092425;28;20709;-74
2021/12/25 00:55:54;;;;;;;13.18;7.35;;;;;;;0.26;95.67;94739.19;5090056;28;20134;-75
2021/12/25 00:58:21;;;;;;;22.88;9.38;;;;;;;0.23;95.80;94743.84;5103378;28;20456;-74
2021/12/25 01:00:50;;;;;;;13.90;7.78;;;;;;;0.20;95.47;94750.13;5089895;28;20043;-74
2021/12/25 01:03:18;;;;;;;17.52;8.80;;;;;;;0.09;95.01;94737.66;5085356;28;20044;-73
2021/12/25 01:05:45;;;;;;;14.07;6.60;;;;;;;0.06;94.81;94754.19;5103601;28;20094;-74
2021/12/25 01:08:12;;;;;;;13.63;7.18;;;;;;;-0.04;94.54;94746.72;5110644;28;20166;-74
2021/12/25 01:10:39;;;;;;;14.95;7.88;;;;;;;-0.23;94.86;94745.34;5094892;28;20050;-74
2021/12/25 01:13:14;;;;;;;14.65;7.32;;;;;;;-0.28;95.83;94739.91;5087563;28;20421;-74
2021/12/25 01:24:15;;;;;;;10.82;6.75;;;;;;;-1.13;100.00;94732.75;5111514;28;20130;-74
2021/12/25 01:50:07;;;;;;;14.35;7.43;;;;;;;-1.03;97.48;94723.16;5096248;27;20036;-74
2021/12/25 01:52:35;;;;;;;15.95;7.25;;;;;;;-1.05;97.02;94712.28;5096796;27;20123;-74
2021/12/25 01:55:10;;;;;;;11.57;6.32;;;;;;;-1.14;97.17;94720.94;5121149;27;20041;-74
2021/12/25 01:57:38;;;;;;;12.52;6.07;;;;;;;-1.18;97.34;94717.09;5122753;27;20688;-75
2021/12/25 02:00:09;;;;;;;12.75;6.38;;;;;;;-1.23;98.77;94717.56;5096128;27;20063;-73
2021/12/25 02:02:43;;;;;;;61.60;24.15;;;;;;;-1.39;99.88;94727.81;5118822;27;20054;-75
2021/12/25 02:05:11;;;;;;;32.33;16.02;;;;;;;-1.40;100.00;94714.25;5117482;27;20047;-74
2021/12/25 02:07:39;;;;;;;52.65;22.42;;;;;;;-1.45;100.00;94703.69;5114448;27;20045;-74
2021/12/25 02:10:07;;;;;;;39.67;17.13;;;;;;;-1.38;100.00;94699.53;5098587;27;20174;-75
2021/12/25 02:12:35;;;;;;;38.75;16.80;;;;;;;-1.51;100.00;94709.44;5104918;27;20051;-75
2021/12/25 02:15:10;;;;;;;30.13;15.00;;;;;;;-1.56;100.00;94701.47;5098296;27;20047;-75
2021/12/25 02:20:22;;;;;;;30.98;15.35;;;;;;;-1.35;100.00;94714.56;5103525;27;20051;-75
2021/12/25 02:22:51;;;;;;;22.90;12.23;;;;;;;-1.37;100.00;94701.16;5097665;27;20516;-74
2021/12/25 02:25:18;;;;;;;39.00;18.02;;;;;;;-1.23;100.00;94706.56;5098402;27;20126;-74
2021/12/25 02:27:45;;;;;;;32.33;18.52;;;;;;;-1.37;100.00;94696.03;5098636;27;20134;-74
2021/12/25 02:30:12;;;;;;;21.80;12.32;;;;;;;-1.28;100.00;94708.78;5100518;27;20043;-74
2021/12/25 02:32:43;;;;;;;50.50;28.88;;;;;;;-1.32;100.00;94707.53;5092571;27;20135;-74
2021/12/25 02:35:12;;;;;;;36.22;18.85;;;;;;;-1.40;100.00;94701.47;5097537;27;20047;-74
2021/12/25 02:37:40;;;;;;;29.10;15.10;;;;;;;-1.35;100.00;94699.22;5096299;27;20050;-74
2021/12/25 02:40:08;;;;;;;29.88;16.13;;;;;;;-1.30;100.00;94700.50;5097375;27;20043;-75
2021/12/25 02:42:35;;;;;;;21.05;10.57;;;;;;;-1.21;100.00;94689.31;5112831;27;20046;-74
2021/12/25 02:45:06;;;;;;;29.42;16.50;;;;;;;-1.11;100.00;94710.38;5116434;27;20040;-75
2021/12/25 02:47:36;;;;;;;22.27;12.07;;;;;;;-1.04;100.00;94701.13;5092862;27;20074;-75
2021/12/25 02:50:03;;;;;;;21.83;9.57;;;;;;;-0.91;100.00;94699.81;5099795;28;20050;-74
2021/12/25 02:52:30;;;;;;;33.75;7.38;;;;;;;-0.71;100.00;94695.13;5109650;27;20491;-75
2021/12/25 02:54:57;;;;;;;11.73;6.32;;;;;;;-0.62;100.00;94687.25;5092611;27;20043;-75
2021/12/25 02:57:24;;;;;;;56.70;25.20;;;;;;;-0.53;100.00;94682.13;5089849;28;20044;-75
2021/12/25 02:59:51;;;;;;;132.32;41.38;;;;;;;-0.37;100.00;94687.19;5096461;27;20116;-75
2021/12/25 03:02:18;;;;;;;25.42;11.27;;;;;;;-0.25;100.00;94690.97;5095466;27;20138;-75
2021/12/25 03:04:48;;;;;;;19.13;10.48;;;;;;;-0.32;100.00;94690.03;5098869;27;20035;-75
2021/12/25 03:07:16;;;;;;;22.00;9.98;;;;;;;-0.33;100.00;94701.22;5117231;27;20118;-75
2021/12/25 03:09:44;;;;;;;19.52;11.50;;;;;;;-0.46;100.00;94713.75;5092799;27;20100;-75
2021/12/25 03:12:14;;;;;;;22.85;11.55;;;;;;;-0.54;100.00;94703.53;5097927;27;20448;-75
2021/12/25 03:15:07;;;;;;;25.23;11.25;;;;;;;-0.49;100.00;94708.97;5092322;27;20126;-74
2021/12/25 03:17:36;;;;;;;21.83;11.32;;;;;;;-0.43;100.00;94714.22;5102953;27;20047;-74
2021/12/25 03:20:05;;;;;;;34.25;14.23;;;;;;;-0.38;100.00;94711.16;5110012;27;20038;-73
2021/12/25 03:22:33;;;;;;;33.15;15.35;;;;;;;-0.40;100.00;94700.28;5101098;27;20879;-75
2021/12/25 03:25:01;;;;;;;35.30;16.05;;;;;;;-0.27;100.00;94708.25;5113532;27;20070;-74
2021/12/25 03:27:28;;;;;;;30.80;14.60;;;;;;;-0.22;100.00;94721.34;5097706;27;20047;-74
2021/12/25 03:29:55;;;;;;;41.75;17.73;;;;;;;-0.26;100.00;94704.72;5099704;27;20041;-75
2021/12/25 03:32:22;;;;;;;29.33;14.98;;;;;;;-0.41;100.00;94696.16;5109342;27;20057;-74
2021/12/25 03:34:49;;;;;;;26.98;12.13;;;;;;;-0.59;100.00;94704.06;5097426;27;20041;-74
2021/12/25 03:37:16;;;;;;;24.27;10.98;;;;;;;-0.80;100.00;94717.38;5107374;27;20032;-75
2021/12/25 03:39:44;;;;;;;20.48;10.00;;;;;;;-0.96;100.00;94703.63;5094094;28;20048;-75
2021/12/25 03:42:12;;;;;;;19.88;9.88;;;;;;;-1.81;100.00;94683.56;5091779;27;20541;-74
2021/12/25 03:44:38;;;;;;;24.02;9.15;;;;;;;-1.71;100.00;94703.03;5118798;27;20435;-75
2021/12/25 03:47:23;;;;;;;27.65;10.27;;;;;;;-1.87;100.00;94704.63;5081486;28;20130;-75
2021/12/25 03:58:12;;;;;;;18.85;9.88;;;;;;;-1.92;100.00;94717.06;5092642;28;20047;-75
2021/12/25 04:00:41;;;;;;;18.75;7.93;;;;;;;-1.67;100.00;94719.66;5095574;27;20058;-75
2021/12/25 04:03:15;;;;;;;18.90;9.77;;;;;;;-1.56;100.00;94716.78;5112774;27;20088;-74
2021/12/25 04:05:45;;;;;;;;;;;;;;;-1.48;100.00;94719.34;5094997;27;20131;-75
2021/12/25 04:08:15;;;;;;;14.45;8.50;;;;;;;-1.71;100.00;94715.81;5093653;27;19959;-75
2021/12/25 04:10:45;;;;;;;17.98;9.95;;;;;;;-1.67;100.00;94719.66;5092078;27;20048;-75
2021/12/25 04:13:14;;;;;;;15.45;8.88;;;;;;;-1.73;100.00;94719.31;5093110;28;20043;-75
2021/12/25 04:15:42;;;;;;;17.02;8.93;;;;;;;-1.92;100.00;94707.63;5090071;28;20089;-75
2021/12/25 04:18:10;;;;;;;10.98;6.68;;;;;;;-1.71;100.00;94715.81;5091379;28;20047;-75
2021/12/25 04:20:38;;;;;;;15.07;8.15;;;;;;;-1.60;100.00;94710.41;5092987;28;20054;-75
2021/12/25 04:23:17;;;;;;;23.42;7.90;;;;;;;-1.37;100.00;94726.69;5093376;27;20055;-75
2021/12/25 04:25:44;;;;;;;21.23;8.95;;;;;;;-1.31;100.00;94709.13;5114888;27;20804;-75
2021/12/25 04:28:31;;;;;;;20.73;9.30;;;;;;;-1.16;100.00;94715.19;5090305;27;20078;-75
2021/12/25 04:31:09;;;;;;;14.70;8.35;;;;;;;-1.11;100.00;94719.81;5078247;27;20035;-75
2021/12/25 05:04:26;;;;;;;16.13;9.13;;;;;;;-0.76;100.00;94754.44;5113321;28;20046;-75
2021/12/25 05:07:08;;;;;;;16.95;9.20;;;;;;;-0.79;100.00;94742.00;5087724;28;20063;-75
2021/12/25 05:09:35;;;;;;;15.70;8.52;;;;;;;-0.88;100.00;94755.72;5098500;27;20112;-74
2021/12/25 05:12:02;;;;;;;20.38;9.82;;;;;;;-0.84;100.00;94757.03;5099468;27;20587;-75
2021/12/25 05:14:31;;;;;;;16.15;8.48;;;;;;;-1.14;100.00;94751.59;5103797;27;20783;-75
2021/12/25 05:16:58;;;;;;;15.27;9.15;;;;;;;-1.19;100.00;94741.06;5098163;28;20492;-75
2021/12/25 05:19:25;;;;;;;20.40;9.73;;;;;;;-1.16;100.00;94725.41;5098502;28;20130;-75
2021/12/25 05:21:53;;;;;;;25.48;10.95;;;;;;;-1.08;100.00;94730.53;5098155;27;20047;-75
2021/12/25 05:24:22;;;;;;;19.73;10.50;;;;;;;-0.95;100.00;94735.13;5095487;27;20039;-75
2021/12/25 05:26:57;;;;;;;23.05;11.15;;;;;;;-1.11;100.00;94735.16;5097592;27;20139;-75
2021/12/25 05:29:30;;;;;;;29.13;12.43;;;;;;;-1.05;100.00;94745.53;5099619;27;22616;-75
2021/12/25 05:31:58;;;;;;;26.97;12.80;;;;;;;-0.91;100.00;94761.97;5095469;27;20718;-75
2021/12/25 05:34:54;;;;;;;20.42;9.75;;;;;;;-1.13;100.00;94757.50;5091206;27;20140;-76
2021/12/25 05:37:31;;;;;;;21.38;10.75;;;;;;;-1.12;100.00;94759.91;5113529;27;20047;-75
2021/12/25 05:40:02;;;;;;;16.88;9.35;;;;;;;-1.41;100.00;94750.94;5113087;27;20454;-75
2021/12/25 05:42:33;;;;;;;27.85;12.95;;;;;;;-1.45;100.00;94770.13;5098151;28;20051;-75
2021/12/25 05:45:00;;;;;;;22.30;11.25;;;;;;;-1.32;100.00;94771.41;5099212;28;20043;-75
2021/12/25 05:47:44;;;;;;;24.35;8.55;;;;;;;-1.31;100.00;94788.34;5094544;27;20074;-75
2021/12/25 05:50:26;;;;;;;12.38;7.80;;;;;;;-1.42;100.00;94785.13;5101849;27;20043;-75
2021/12/25 05:52:56;;;;;;;14.38;6.90;;;;;;;-1.42;100.00;94780.03;5118763;27;20047;-75
2021/12/25 05:55:43;;;;;;;13.05;7.13;;;;;;;-1.36;100.00;94764.06;5112553;27;20047;-76
2021/12/25 05:58:28;;;;;;;9.48;6.05;;;;;;;-1.21;100.00;94771.09;5114435;27;20561;-75
2021/12/25 06:01:14;;;;;;;12.70;6.43;;;;;;;-1.14;100.00;94787.38;5118397;27;20132;-75
2021/12/25 06:03:41;;;;;;;12.13;5.95;;;;;;;-0.99;100.00;94785.81;5094503;27;20054;-75
2021/12/25 06:06:08;;;;;;;19.50;7.97;;;;;;;-0.85;100.00;94796.31;5099729;28;20511;-75
2021/12/25 06:08:35;;;;;;;20.80;8.38;;;;;;;-0.81;100.00;94772.03;5094981;27;20047;-75
2021/12/25 06:11:05;;;;;;;14.80;8.98;;;;;;;-0.67;100.00;94794.38;5109006;27;20542;-76
2021/12/25 06:13:43;;;;;;;17.90;9.32;;;;;;;-0.60;100.00;94787.66;5115525;27;20439;-76
2021/12/25 06:16:10;;;;;;;19.60;9.40;;;;;;;-0.60;100.00;94774.06;5095819;27;20509;-76
2021/12/25 06:18:56;;;;;;;18.23;9.77;;;;;;;-0.47;100.00;94765.88;5117944;27;20187;-75
2021/12/25 06:21:24;;;;;;;20.27;8.50;;;;;;;-0.51;100.00;94767.19;5097268;27;20039;-75
2021/12/25 06:24:15;;;;;;;16.17;8.63;;;;;;;-0.66;100.00;94779.84;5082849;27;20122;-74
2021/12/25 06:27:03;;;;;;;13.57;7.35;;;;;;;-0.53;100.00;94789.59;5125579;27;20496;-75
2021/12/25 06:29:51;;;;;;;17.27;8.57;;;;;;;-0.40;100.00;94795.78;5095675;27;20516;-76
2021/12/25 06:32:36;;;;;;;26.25;11.25;;;;;;;-0.34;100.00;94804.56;5097935;28;20043;-75
2021/12/25 06:35:30;;;;;;;22.55;9.88;;;;;;;-0.37;100.00;94784.41;5087551;27;20146;-76
2021/12/25 06:38:15;;;;;;;53.33;16.83;;;;;;;-0.29;100.00;94781.84;5109975;27;20035;-76
2021/12/25 06:40:49;;;;;;;39.30;17.08;;;;;;;-0.22;100.00;94793.03;5096880;28;20047;-76
2021/12/25 06:43:16;;;;;;;30.67;15.95;;;;;;;-0.07;100.00;94800.03;5097032;27;20043;-75
2021/12/25 06:45:43;;;;;;;32.60;14.57;;;;;;;-0.18;100.00;94778.13;5094132;27;20043;-76
2021/12/25 06:48:12;;;;;;;34.47;17.15;;;;;;;0.05;100.00;94808.91;5098466;27;20051;-76
2021/12/25 06:51:05;;;;;;;37.55;18.33;;;;;;;0.09;100.00;94812.75;5088406;27;20055;-75
2021/12/25 06:53:43;;;;;;;33.95;16.85;;;;;;;0.13;100.00;94805.53;5094478;27;20122;-75
2021/12/25 06:56:31;;;;;;;37.35;19.10;;;;;;;0.25;100.00;94829.00;5117668;27;20075;-76
2021/12/25 06:59:03;;;;;;;37.22;18.20;;;;;;;0.35;100.00;94809.91;5097708;27;20545;-75
2021/12/25 07:01:33;;;;;;;39.80;18.52;;;;;;;0.34;100.00;94802.38;5094579;28;20509;-76
2021/12/25 07:04:01;;;;;;;37.45;17.80;;;;;;;0.48;100.00;94819.59;5099992;27;20104;-76
2021/12/25 07:06:47;;;;;;;49.13;22.48;;;;;;;0.62;100.00;94836.03;5114272;27;20803;-76
2021/12/25 07:09:23;;;;;;;61.30;28.40;;;;;;;0.67;100.00;94827.84;5117484;27;20100;-77
2021/12/25 07:12:06;;;;;;;60.85;28.15;;;;;;;0.75;100.00;94825.22;5093469;27;20054;-76
2021/12/25 07:14:46;;;;;;;74.25;31.90;;;;;;;0.87;100.00;94838.47;5095801;27;20560;-74
2021/12/25 07:17:31;;;;;;;98.18;43.15;;;;;;;0.95;100.00;94846.91;5094607;27;20070;-77
2021/12/25 07:20:16;;;;;;;120.60;48.58;;;;;;;0.97;100.00;94838.22;5113613;27;20070;-76
2021/12/25 07:23:09;;;;;;;85.20;36.03;;;;;;;1.00;100.00;94827.63;5094600;27;20420;-75
2021/12/25 07:25:46;;;;;;;47.95;23.88;;;;;;;1.09;100.00;94826.59;5093052;27;20183;-77
2021/12/25 07:28:36;;;;;;;47.17;23.58;;;;;;;1.11;100.00;94827.22;5119558;27;20740;-76
2021/12/25 07:31:03;;;;;;;70.70;26.30;;;;;;;1.19;100.00;94827.19;5110555;27;20046;-74
2021/12/25 07:33:32;;;;;;;64.70;26.33;;;;;;;1.23;100.00;94820.72;5111865;27;20043;-75
2021/12/25 07:35:59;;;;;;;62.35;28.23;;;;;;;1.42;100.00;94836.59;5114952;27;20035;-75
2021/12/25 07:38:26;;;;;;;72.20;31.05;;;;;;;1.48;100.00;94821.31;5110247;27;20043;-75
2021/12/25 07:40:53;;;;;;;75.32;34.17;;;;;;;1.65;100.00;94837.34;5105177;27;20044;-75
2021/12/25 07:43:20;;;;;;;60.38;30.00;;;;;;;1.77;100.00;94842.06;5115728;27;20043;-75
2021/12/25 07:45:59;;;;;;;62.95;31.50;;;;;;;1.54;100.00;94840.34;5094722;27;20126;-76
2021/12/25 07:48:27;;;;;;;60.45;31.88;;;;;;;1.50;100.00;94854.50;5117144;27;20040;-75
2021/12/25 07:50:55;;;;;;;72.90;32.30;;;;;;;1.62;100.00;94842.84;5108035;27;20094;-75
2021/12/25 07:53:22;;;;;;;68.95;33.55;;;;;;;1.87;100.00;94860.56;5110867;27;20047;-75
2021/12/25 07:55:49;;;;;;;76.00;33.75;;;;;;;2.04;100.00;94851.72;5106217;27;20043;-75
2021/12/25 07:58:17;;;;;;;66.07;33.47;;;;;;;1.93;100.00;94844.47;5119064;27;20039;-77
2021/12/25 08:00:45;;;;;;;65.82;35.38;;;;;;;2.08;100.00;94852.97;5095359;27;20502;-77
2021/12/25 08:03:12;;;;;;;81.95;31.38;;;;;;;2.24;100.00;94856.34;5119196;27;20822;-77
2021/12/25 08:05:39;;;;;;;41.60;21.83;;;;;;;2.23;100.00;94854.72;5098559;27;20994;-77
2021/12/25 08:08:07;;;;;;;37.28;21.13;;;;;;;2.34;100.00;94856.88;5117430;27;20086;-77
2021/12/25 08:10:34;;;;;;;25.77;13.07;;;;;;;2.47;100.00;94851.88;5103764;27;20483;-77
2021/12/25 08:13:02;;;;;;;23.02;13.60;;;;;;;2.24;100.00;94846.84;5120991;27;20057;-77
2021/12/25 08:15:30;;;;;;;22.38;12.13;;;;;;;2.29;100.00;94854.81;5116524;27;20050;-78
2021/12/25 08:18:00;;;;;;;15.57;8.43;;;;;;;2.38;100.00;94842.69;5123365;27;20122;-77
2021/12/25 08:20:32;;;;;;;21.67;11.63;;;;;;;2.72;100.00;94846.44;5124760;27;20477;-76
2021/12/25 08:23:25;;;;;;;17.27;9.10;;;;;;;3.14;100.00;94844.84;5102860;27;20078;-77
2021/12/25 08:26:05;;;;;;;15.60;8.30;;;;;;;3.38;99.02;94853.19;5121790;27;20062;-77
2021/12/25 08:28:44;;;;;;;12.82;7.05;;;;;;;3.74;95.50;94858.22;5124642;27;20044;-76
2021/12/25 08:31:44;;;;;;;9.35;5.28;;;;;;;4.08;95.44;94853.28;5089797;27;20043;-76
2021/12/25 08:34:11;;;;;;;107.05;37.53;;;;;;;4.31;92.74;94853.81;5115793;27;20035;-76
2021/12/25 08:36:54;;;;;;;37.75;17.90;;;;;;;4.56;90.94;94845.59;5114049;27;20047;-77
2021/12/25 08:39:21;;;;;;;74.20;29.90;;;;;;;4.67;89.64;94842.44;5110835;28;20047;-77
2021/12/25 08:41:48;;;;;;;135.10;47.35;;;;;;;4.83;89.61;94835.38;5111807;28;20052;-76
2021/12/25 08:44:36;;;;;;;86.90;32.80;;;;;;;4.91;88.69;94833.38;5107851;27;20039;-76
2021/12/25 08:47:06;;;;;;;56.42;21.70;;;;;;;5.13;86.82;94840.97;5107882;27;20541;-76
2021/12/25 08:49:35;;;;;;;32.83;15.02;;;;;;;5.38;85.32;94843.78;5101943;28;20044;-76
2021/12/25 08:52:06;;;;;;;23.05;12.48;;;;;;;5.58;85.16;94848.16;5108794;28;20043;-75
2021/12/25 08:54:34;;;;;;;21.08;11.07;;;;;;;5.83;83.85;94835.41;5092133;28;20666;-76
2021/12/25 08:57:02;;;;;;;21.45;10.23;;;;;;;5.86;83.63;94825.47;5111137;28;20106;-77
2021/12/25 08:59:29;;;;;;;31.23;16.95;;;;;;;6.02;83.02;94820.91;5107432;28;20108;-77
2021/12/25 09:01:57;;;;;;;36.65;17.42;;;;;;;6.17;82.00;94826.63;5106076;27;20584;-76
2021/12/25 09:04:24;;;;;;;29.58;14.23;;;;;;;6.11;81.18;94819.69;5110958;28;20397;-77
2021/12/25 09:06:51;;;;;;;55.20;29.15;;;;;;;6.28;82.67;94818.25;5116023;27;20051;-77
2021/12/25 09:09:18;;;;;;;54.95;21.65;;;;;;;6.40;84.17;94809.84;5111819;28;20044;-76
2021/12/25 09:11:45;;;;;;;24.15;12.15;;;;;;;6.62;82.75;94824.09;5109956;27;20035;-75
2021/12/25 09:14:12;;;;;;;45.47;20.92;;;;;;;6.67;82.61;94816.50;5110223;28;20040;-75
2021/12/25 09:16:40;;;;;;;27.05;11.10;;;;;;;6.90;81.56;94820.38;5113186;28;20047;-74
2021/12/25 09:19:07;;;;;;;36.92;20.40;;;;;;;7.15;82.16;94801.50;5090827;28;20040;-76
2021/12/25 09:21:35;;;;;;;27.00;14.27;;;;;;;7.54;80.90;94820.34;5111743;28;20067;-75
2021/12/25 09:24:02;;;;;;;26.75;14.18;;;;;;;7.91;79.29;94815.25;5112393;28;20040;-75
2021/12/25 09:26:29;;;;;;;12.88;8.00;;;;;;;8.01;76.62;94794.78;5112363;28;20040;-76
2021/12/25 09:28:56;;;;;;;17.40;8.32;;;;;;;8.30;75.54;94808.06;5087541;28;20048;-76
2021/12/25 09:31:24;;;;;;;21.25;9.48;;;;;;;8.33;75.73;94812.81;5084872;28;20124;-76
2021/12/25 09:33:52;;;;;;;19.17;10.40;;;;;;;8.29;74.59;94806.47;5109088;28;20492;-76
2021/12/25 09:36:20;;;;;;;16.70;8.55;;;;;;;8.43;76.12;94797.56;5119657;28;20046;-75
2021/12/25 09:38:48;;;;;;;19.52;8.82;;;;;;;8.63;74.71;94794.72;5119746;28;20572;-76
2021/12/25 09:41:16;;;;;;;18.70;10.13;;;;;;;8.99;73.16;94795.66;5115900;28;20046;-77
2021/12/25 09:43:46;;;;;;;22.23;12.85;;;;;;;9.38;70.93;94804.69;5123014;28;20516;-76
2021/12/25 09:46:15;;;;;;;17.25;8.50;;;;;;;9.81;70.53;94797.56;5115297;28;20039;-77
2021/12/25 09:48:42;;;;;;;12.23;6.18;;;;;;;9.91;66.26;94791.81;5118706;28;20759;-75
2021/12/25 09:51:10;;;;;;;11.52;6.65;;;;;;;9.25;67.76;94778.88;5119609;28;20125;-76
2021/12/25 09:53:37;;;;;;;15.05;8.43;;;;;;;9.28;67.60;94783.63;5117562;27;20053;-76
2021/12/25 09:56:05;;;;;;;11.90;7.72;;;;;;;9.54;65.87;94787.63;5098416;28;20038;-76
2021/12/25 09:58:36;;;;;;;14.18;7.25;;;;;;;9.63;64.65;94780.25;5120401;27;20035;-78
2021/12/25 10:01:03;;;;;;;37.00;27.52;;;;;;;9.23;67.30;94775.69;5114876;27;20093;-76
2021/12/25 10:03:45;;;;;;;30.13;19.05;;;;;;;8.77;68.09;94772.00;5116396;27;20039;-73
2021/12/25 10:06:34;;;;;;;22.00;13.38;;;;;;;8.52;69.07;94759.13;5116203;27;20370;-76
2021/12/25 10:09:18;;;;;;;26.15;13.93;;;;;;;8.76;68.50;94760.00;5111799;27;20044;-74
2021/12/25 10:12:02;;;;;;;18.92;8.40;;;;;;;9.54;65.74;94766.03;5120222;27;20039;-75
2021/12/25 10:14:35;;;;;;;17.42;6.78;;;;;;;10.01;64.76;94745.22;5122795;27;20119;-75
2021/12/25 10:17:18;;;;;;;10.77;6.57;;;;;;;10.66;62.19;94756.34;5110332;27;20066;-74
2021/12/25 10:20:13;;;;;;;13.20;8.05;;;;;;;11.28;60.35;94758.97;5112370;27;20051;-74
2021/12/25 10:23:11;;;;;;;10.02;5.45;;;;;;;11.72;58.77;94753.13;5107996;27;20424;-76
2021/12/25 10:25:48;;;;;;;9.82;5.43;;;;;;;12.61;57.74;94759.22;5094527;27;20039;-76
2021/12/25 10:28:19;;;;;;;9.50;5.43;;;;;;;13.31;52.94;94762.00;5115831;27;20470;-76
2021/12/25 10:30:52;;;;;;;11.00;6.68;;;;;;;13.53;50.95;94752.22;5120837;27;20039;-75
2021/12/25 10:33:22;;;;;;;11.00;5.45;;;;;;;14.12;49.69;94748.66;5110811;27;20047;-74
2021/12/25 10:35:54;;;;;;;9.38;5.70;;;;;;;14.81;47.22;94740.81;5105752;27;20047;-72
2021/12/25 10:38:24;;;;;;;11.05;4.93;;;;;;;14.17;46.96;94732.19;5103675;27;20045;-73
2021/12/25 10:41:09;;;;;;;9.13;5.97;;;;;;;15.09;45.21;94732.44;5108395;27;20123;-73
2021/12/25 10:43:41;;;;;;;14.55;7.35;;;;;;;15.08;44.77;94724.84;5106159;27;20111;-73
2021/12/25 10:46:08;;;;;;;17.13;8.82;;;;;;;15.54;43.54;94726.66;5105790;27;20044;-75
2021/12/25 10:48:35;;;;;;;14.70;7.85;;;;;;;16.06;43.03;94733.41;5101454;27;20047;-73
2021/12/25 10:51:03;;;;;;;9.02;5.78;;;;;;;16.94;40.63;94732.00;5104354;27;20059;-74
2021/12/25 10:53:34;;;;;;;11.38;5.85;;;;;;;16.97;40.28;94731.44;5101265;27;20532;-74
2021/12/25 10:56:09;;;;;;;9.27;5.35;;;;;;;17.56;39.30;94726.28;5099612;27;20153;-74
2021/12/25 10:58:37;;;;;;;11.48;5.13;;;;;;;16.31;39.33;94708.88;5091899;27;20057;-73
2021/12/25 11:01:07;;;;;;;13.90;8.45;;;;;;;16.17;41.32;94719.22;5107409;27;20456;-73
2021/12/25 11:03:37;;;;;;;12.27;6.78;;;;;;;16.80;39.25;94715.25;5109648;27;20405;-73
2021/12/25 11:06:06;;;;;;;7.95;5.20;;;;;;;17.33;38.79;94702.25;5104935;28;20035;-73
2021/12/25 11:08:34;;;;;;;10.63;6.13;;;;;;;17.87;37.38;94716.25;5107788;27;20431;-72
2021/12/25 11:11:13;;;;;;;11.55;5.55;;;;;;;17.96;36.30;94713.81;5101952;28;20051;-73
2021/12/25 11:13:43;;;;;;;9.70;5.47;;;;;;;18.32;36.04;94716.03;5104807;28;20043;-72
2021/12/25 11:16:22;;;;;;;10.10;4.63;;;;;;;18.59;35.66;94714.66;5106832;27;20428;-72
2021/12/25 11:18:50;;;;;;;7.65;4.50;;;;;;;18.76;34.19;94706.25;5106281;27;20039;-72
2021/12/25 11:21:17;;;;;;;8.27;4.18;;;;;;;19.03;34.05;94702.97;5110668;27;20053;-71
2021/12/25 11:23:46;;;;;;;11.68;6.32;;;;;;;18.88;34.12;94699.50;5111983;27;20039;-71
2021/12/25 11:26:14;;;;;;;7.13;3.50;;;;;;;18.93;34.31;94682.03;5106858;27;20056;-72
2021/12/25 11:28:42;;;;;;;6.40;3.38;;;;;;;19.65;32.74;94674.50;5113229;27;20416;-71
2021/12/25 11:31:09;;;;;;;5.80;3.08;;;;;;;19.53;31.95;94678.69;5102575;28;20054;-71
2021/12/25 11:33:38;;;;;;;6.80;3.63;;;;;;;19.95;31.14;94685.63;5106000;27;20044;-71
2021/12/25 11:36:05;;;;;;;5.28;3.28;;;;;;;20.14;30.61;94671.50;5102772;27;20050;-71
2021/12/25 11:38:32;;;;;;;7.03;3.78;;;;;;;19.31;32.08;94681.97;5099280;27;20390;-71
2021/12/25 11:41:08;;;;;;;9.63;5.32;;;;;;;19.82;32.08;94667.88;5102274;27;20044;-71
2021/12/25 11:43:42;;;;;;;6.60;3.17;;;;;;;20.76;29.93;94671.84;5085118;27;20047;-71
2021/12/25 11:46:09;;;;;;;22.77;8.55;;;;;;;21.23;29.75;94681.34;5114061;27;20035;-71
2021/12/25 11:48:38;;;;;;;7.43;4.45;;;;;;;21.41;27.94;94669.78;5106785;27;20108;-71
2021/12/25 11:51:06;;;;;;;6.93;4.70;;;;;;;21.10;28.49;94680.31;5108707;27;20043;-71
2021/12/25 11:56:50;;;;;;;2.75;1.73;;;;;;;20.98;28.92;94670.28;5090508;28;20116;-71
2021/12/25 11:59:18;;;;;;;5.70;3.70;;;;;;;20.47;30.20;94666.09;5106656;27;20539;-71
2021/12/25 12:01:49;;;;;;;21.23;10.30;;;;;;;19.34;32.61;94660.25;5111233;27;20039;-71
2021/12/25 12:04:19;;;;;;;12.00;6.65;;;;;;;17.91;35.05;94658.53;5104272;28;20039;-71
2021/12/25 12:09:13;;;;;;;13.32;9.18;;;;;;;16.20;39.41;94660.84;5105064;27;20044;-71
2021/12/25 12:12:17;;;;;;;15.68;7.65;;;;;;;15.97;39.98;94650.97;5090996;28;20157;-71
2021/12/25 12:15:13;;;;;;;12.10;6.63;;;;;;;15.98;40.54;94655.19;5103084;27;20506;-71
2021/12/25 12:18:29;;;;;;;39.17;17.85;;;;;;;15.36;41.93;94663.19;5081947;27;20051;-71
2021/12/25 12:21:24;;;;;;;37.75;21.83;;;;;;;14.97;43.38;94655.09;5099480;28;20077;-72
2021/12/25 12:27:02;;;;;;;17.40;11.25;;;;;;;14.04;46.51;94654.06;5104721;27;20058;-71
2021/12/25 12:29:38;;;;;;;15.45;10.05;;;;;;;14.10;45.51;94663.53;5078560;28;20066;-72
2021/12/25 12:32:07;;;;;;;17.27;8.50;;;;;;;13.98;46.44;94644.66;5096587;28;20059;-74
2021/12/25 12:34:40;;;;;;;15.82;8.77;;;;;;;14.94;43.59;94645.88;5098633;28;20043;-73
2021/12/25 12:37:13;;;;;;;12.05;7.40;;;;;;;14.89;44.00;94653.75;5065380;27;20638;-71
2021/12/25 12:39:57;;;;;;;13.85;8.50;;;;;;;14.32;44.60;94656.25;5099952;27;20169;-71
2021/12/25 12:45:15;;;;;;;17.63;8.80;;;;;;;14.27;45.26;94653.63;5101273;27;20468;-71
2021/12/25 12:48:21;;;;;;;20.20;10.80;;;;;;;14.10;45.80;94668.78;5095884;28;20044;-70
2021/12/25 12:50:55;;;;;;;17.15;7.80;;;;;;;14.01;46.09;94657.19;5096747;28;20122;-71
2021/12/25 12:53:24;;;;;;;16.45;6.78;;;;;;;14.57;43.59;94651.31;5097782;28;20040;-71
2021/12/25 12:55:53;;;;;;;10.30;5.93;;;;;;;14.69;43.13;94665.81;5096568;28;20036;-71
2021/12/25 12:58:27;;;;;;;14.63;7.75;;;;;;;14.86;43.97;94659.53;5098597;28;20075;-71
2021/12/25 13:01:09;;;;;;;19.20;8.55;;;;;;;14.62;44.01;94665.28;5096339;28;20044;-71
2021/12/25 13:03:37;;;;;;;16.13;8.98;;;;;;;13.92;45.06;94660.31;5099966;28;20517;-71
2021/12/25 13:06:12;;;;;;;10.38;6.20;;;;;;;13.55;46.55;94668.25;5102204;28;20517;-70
2021/12/25 13:08:41;;;;;;;20.23;10.65;;;;;;;13.53;46.82;94670.34;5081148;28;20138;-71
2021/12/25 13:11:20;;;;;;;40.42;19.45;;;;;;;13.18;48.34;94669.00;5099096;28;20590;-71
2021/12/25 13:13:57;;;;;;;14.55;8.60;;;;;;;13.13;48.00;94672.41;5101400;28;20071;-70
2021/12/25 13:16:33;;;;;;;18.50;10.23;;;;;;;12.97;48.31;94678.53;5106078;28;20119;-71